sensor_id;sensor_type;location;lat;lon;timestamp;P1;durP1;ratioP1;P2;durP2;ratioP2
63955;SDS011;50131;52.084;5.228;2022-08-21T00:01:27;56.0;;;52.9;;
63955;SDS011;50131;52.084;5.228;2022-08-21T00:03:06;42.8;;;39.9;;
63955;SDS011;50131;52.084;5.228;2022-08-21T00:04:46;32.5;;;30.3;;
63955;SDS011;50131;52.084;5.228;2022-08-21T00:08:00;29.7;;;27.5;;
63955;SDS011;50131;52.084;5.228;2022-08-21T00:09:39;30.9;;;28.8;;
63955;SDS011;50131;52.084;5.228;2022-08-21T00:11:16;31.8;;;29.8;;
63955;SDS011;50131;52.084;5.228;2022-08-21T00:12:54;31.7;;;29.6;;
63955;SDS011;50131;52.084;5.228;2022-08-21T00:16:08;33.6;;;31.5;;
63955;SDS011;50131;52.084;5.228;2022-08-21T00:17:45;33.8;;;31.6;;
63955;SDS011;50131;52.084;5.228;2022-08-21T00:19:24;32.3;;;30.2;;
63955;SDS011;50131;52.084;5.228;2022-08-21T00:22:39;32.9;;;30.7;;
63955;SDS011;50131;52.084;5.228;2022-08-21T00:24:17;30.2;;;28.3;;
63955;SDS011;50131;52.084;5.228;2022-08-21T00:25:54;33.1;;;31.0;;
63955;SDS011;50131;52.084;5.228;2022-08-21T00:27:30;33.6;;;31.5;;
63955;SDS011;50131;52.084;5.228;2022-08-21T00:30:43;38.4;;;36.0;;
63955;SDS011;50131;52.084;5.228;2022-08-21T00:32:20;39.9;;;37.5;;
63955;SDS011;50131;52.084;5.228;2022-08-21T00:33:59;32.5;;;30.3;;
63955;SDS011;50131;52.084;5.228;2022-08-21T00:37:17;28.7;;;26.8;;
63955;SDS011;50131;52.084;5.228;2022-08-21T00:38:54;37.1;;;34.81;;
63955;SDS011;50131;52.084;5.228;2022-08-21T00:40:32;40.4;;;37.9;;
63955;SDS011;50131;52.084;5.228;2022-08-21T00:42:14;42.3;;;39.71;;
63955;SDS011;50131;52.084;5.228;2022-08-21T00:45:31;35.4;;;33.0;;
63955;SDS011;50131;52.084;5.228;2022-08-21T00:47:09;37.71;;;35.5;;
63955;SDS011;50131;52.084;5.228;2022-08-21T00:48:46;42.4;;;39.81;;
63955;SDS011;50131;52.084;5.228;2022-08-21T00:52:05;41.9;;;39.21;;
63955;SDS011;50131;52.084;5.228;2022-08-21T00:53:46;39.0;;;36.71;;
63955;SDS011;50131;52.084;5.228;2022-08-21T00:55:22;30.0;;;27.9;;
63955;SDS011;50131;52.084;5.228;2022-08-21T01:00:25;31.3;;;28.9;;
63955;SDS011;50131;52.084;5.228;2022-08-21T01:02:06;33.1;;;30.9;;
63955;SDS011;50131;52.084;5.228;2022-08-21T01:03:45;35.81;;;33.4;;
63955;SDS011;50131;52.084;5.228;2022-08-21T01:05:22;33.4;;;31.2;;
63955;SDS011;50131;52.084;5.228;2022-08-21T01:08:37;31.7;;;29.7;;
63955;SDS011;50131;52.084;5.228;2022-08-21T01:10:14;36.31;;;34.0;;
63955;SDS011;50131;52.084;5.228;2022-08-21T01:11:52;44.6;;;42.0;;
63955;SDS011;50131;52.084;5.228;2022-08-21T01:13:31;40.4;;;37.9;;
63955;SDS011;50131;52.084;5.228;2022-08-21T01:18:30;25.0;;;22.7;;
63955;SDS011;50131;52.084;5.228;2022-08-21T01:20:08;35.1;;;32.8;;
63955;SDS011;50131;52.084;5.228;2022-08-21T01:23:24;39.0;;;36.4;;
63955;SDS011;50131;52.084;5.228;2022-08-21T01:25:02;45.4;;;42.6;;
63955;SDS011;50131;52.084;5.228;2022-08-21T01:26:41;43.9;;;40.81;;
63955;SDS011;50131;52.084;5.228;2022-08-21T01:28:19;54.3;;;51.2;;
63955;SDS011;50131;52.084;5.228;2022-08-21T01:31:44;47.3;;;44.3;;
63955;SDS011;50131;52.084;5.228;2022-08-21T01:35:00;40.9;;;38.21;;
63955;SDS011;50131;52.084;5.228;2022-08-21T01:39:53;47.5;;;44.7;;
63955;SDS011;50131;52.084;5.228;2022-08-21T01:41:29;38.21;;;35.81;;
63955;SDS011;50131;52.084;5.228;2022-08-21T01:43:06;40.31;;;37.71;;
63955;SDS011;50131;52.084;5.228;2022-08-21T01:46:20;28.0;;;25.9;;
63955;SDS011;50131;52.084;5.228;2022-08-21T01:47:56;39.0;;;36.4;;
63955;SDS011;50131;52.084;5.228;2022-08-21T01:49:32;41.0;;;38.31;;
63955;SDS011;50131;52.084;5.228;2022-08-21T01:51:09;23.7;;;21.6;;
63955;SDS011;50131;52.084;5.228;2022-08-21T01:54:24;27.7;;;25.6;;
63955;SDS011;50131;52.084;5.228;2022-08-21T01:56:03;30.2;;;28.1;;
63955;SDS011;50131;52.084;5.228;2022-08-21T01:57:42;29.8;;;27.8;;
63955;SDS011;50131;52.084;5.228;2022-08-21T02:00:58;30.6;;;28.4;;
63955;SDS011;50131;52.084;5.228;2022-08-21T02:02:34;20.5;;;18.5;;
63955;SDS011;50131;52.084;5.228;2022-08-21T02:04:10;26.7;;;24.6;;
63955;SDS011;50131;52.084;5.228;2022-08-21T02:09:01;27.3;;;24.9;;
63955;SDS011;50131;52.084;5.228;2022-08-21T02:10:40;33.21;;;30.6;;
63955;SDS011;50131;52.084;5.228;2022-08-21T02:12:17;32.5;;;30.3;;
63955;SDS011;50131;52.084;5.228;2022-08-21T02:15:30;29.9;;;27.6;;
63955;SDS011;50131;52.084;5.228;2022-08-21T02:17:07;33.0;;;30.5;;
63955;SDS011;50131;52.084;5.228;2022-08-21T02:18:43;24.2;;;22.2;;
63955;SDS011;50131;52.084;5.228;2022-08-21T02:25:15;33.4;;;31.0;;
63955;SDS011;50131;52.084;5.228;2022-08-21T02:26:54;24.9;;;22.8;;
63955;SDS011;50131;52.084;5.228;2022-08-21T02:30:08;19.0;;;17.11;;
63955;SDS011;50131;52.084;5.228;2022-08-21T02:31:47;25.0;;;23.1;;
63955;SDS011;50131;52.084;5.228;2022-08-21T02:33:24;19.41;;;17.8;;
63955;SDS011;50131;52.084;5.228;2022-08-21T02:36:38;18.11;;;16.3;;
63955;SDS011;50131;52.084;5.228;2022-08-21T02:41:36;24.9;;;23.0;;
63955;SDS011;50131;52.084;5.228;2022-08-21T02:46:27;27.6;;;25.6;;
63955;SDS011;50131;52.084;5.228;2022-08-21T02:48:05;26.1;;;23.8;;
63955;SDS011;50131;52.084;5.228;2022-08-21T02:49:44;38.31;;;35.5;;
63955;SDS011;50131;52.084;5.228;2022-08-21T02:52:58;46.5;;;43.6;;
63955;SDS011;50131;52.084;5.228;2022-08-21T02:56:13;24.7;;;22.8;;
63955;SDS011;50131;52.084;5.228;2022-08-21T02:59:34;38.21;;;35.5;;
63955;SDS011;50131;52.084;5.228;2022-08-21T03:02:48;33.21;;;30.6;;
63955;SDS011;50131;52.084;5.228;2022-08-21T03:04:25;25.5;;;23.1;;
63955;SDS011;50131;52.084;5.228;2022-08-21T03:07:41;22.8;;;20.7;;
63955;SDS011;50131;52.084;5.228;2022-08-21T03:09:19;22.8;;;20.7;;
63955;SDS011;50131;52.084;5.228;2022-08-21T03:10:55;24.0;;;22.2;;
63955;SDS011;50131;52.084;5.228;2022-08-21T03:14:09;22.8;;;21.0;;
63955;SDS011;50131;52.084;5.228;2022-08-21T03:15:46;16.5;;;14.8;;
63955;SDS011;50131;52.084;5.228;2022-08-21T03:17:23;20.7;;;18.8;;
63955;SDS011;50131;52.084;5.228;2022-08-21T03:19:00;20.7;;;18.8;;
63955;SDS011;50131;52.084;5.228;2022-08-21T03:22:17;47.4;;;44.5;;
63955;SDS011;50131;52.084;5.228;2022-08-21T03:23:54;37.81;;;35.31;;
63955;SDS011;50131;52.084;5.228;2022-08-21T03:25:32;24.1;;;22.0;;
63955;SDS011;50131;52.084;5.228;2022-08-21T03:32:04;40.4;;;37.71;;
63955;SDS011;50131;52.084;5.228;2022-08-21T03:33:41;37.1;;;34.4;;
63955;SDS011;50131;52.084;5.228;2022-08-21T03:36:56;28.1;;;26.0;;
63955;SDS011;50131;52.084;5.228;2022-08-21T03:38:33;27.1;;;25.0;;
63955;SDS011;50131;52.084;5.228;2022-08-21T03:40:13;25.1;;;23.2;;
63955;SDS011;50131;52.084;5.228;2022-08-21T03:43:29;28.3;;;26.0;;
63955;SDS011;50131;52.084;5.228;2022-08-21T03:45:07;37.71;;;35.1;;
63955;SDS011;50131;52.084;5.228;2022-08-21T03:48:21;26.9;;;24.4;;
63955;SDS011;50131;52.084;5.228;2022-08-21T03:51:36;28.0;;;25.7;;
63955;SDS011;50131;52.084;5.228;2022-08-21T03:53:13;35.6;;;32.71;;
63955;SDS011;50131;52.084;5.228;2022-08-21T03:54:51;30.8;;;28.5;;
63955;SDS011;50131;52.084;5.228;2022-08-21T03:58:05;29.5;;;27.1;;
63955;SDS011;50131;52.084;5.228;2022-08-21T03:59:43;25.0;;;23.0;;
63955;SDS011;50131;52.084;5.228;2022-08-21T04:01:20;25.0;;;22.8;;
63955;SDS011;50131;52.084;5.228;2022-08-21T04:02:56;26.4;;;23.8;;
63955;SDS011;50131;52.084;5.228;2022-08-21T04:06:10;26.4;;;24.3;;
63955;SDS011;50131;52.084;5.228;2022-08-21T04:07:46;37.1;;;34.6;;
63955;SDS011;50131;52.084;5.228;2022-08-21T04:09:24;31.9;;;29.5;;
63955;SDS011;50131;52.084;5.228;2022-08-21T04:12:39;34.4;;;31.9;;
63955;SDS011;50131;52.084;5.228;2022-08-21T04:14:15;40.1;;;37.5;;
63955;SDS011;50131;52.084;5.228;2022-08-21T04:15:53;26.5;;;24.4;;
63955;SDS011;50131;52.084;5.228;2022-08-21T04:22:24;36.0;;;33.5;;
63955;SDS011;50131;52.084;5.228;2022-08-21T04:24:00;35.0;;;32.9;;
63955;SDS011;50131;52.084;5.228;2022-08-21T04:27:13;41.4;;;38.5;;
63955;SDS011;50131;52.084;5.228;2022-08-21T04:28:49;46.9;;;44.1;;
63955;SDS011;50131;52.084;5.228;2022-08-21T04:30:25;44.5;;;41.9;;
63955;SDS011;50131;52.084;5.228;2022-08-21T04:33:40;26.4;;;24.0;;
63955;SDS011;50131;52.084;5.228;2022-08-21T04:38:32;26.7;;;24.5;;
63955;SDS011;50131;52.084;5.228;2022-08-21T04:41:49;26.5;;;24.6;;
63955;SDS011;50131;52.084;5.228;2022-08-21T04:43:25;35.1;;;32.71;;
63955;SDS011;50131;52.084;5.228;2022-08-21T04:45:01;37.81;;;35.1;;
63955;SDS011;50131;52.084;5.228;2022-08-21T04:48:16;37.0;;;34.4;;
63955;SDS011;50131;52.084;5.228;2022-08-21T04:49:55;34.0;;;31.4;;
63955;SDS011;50131;52.084;5.228;2022-08-21T04:51:32;31.4;;;29.1;;
63955;SDS011;50131;52.084;5.228;2022-08-21T04:53:14;30.6;;;28.3;;
63955;SDS011;50131;52.084;5.228;2022-08-21T04:56:31;32.21;;;29.7;;
63955;SDS011;50131;52.084;5.228;2022-08-21T04:58:17;33.3;;;31.0;;
63955;SDS011;50131;52.084;5.228;2022-08-21T04:59:56;24.9;;;22.9;;
63955;SDS011;50131;52.084;5.228;2022-08-21T05:01:34;26.6;;;24.4;;
63955;SDS011;50131;52.084;5.228;2022-08-21T05:04:53;25.9;;;23.5;;
63955;SDS011;50131;52.084;5.228;2022-08-21T05:06:31;26.1;;;23.9;;
63955;SDS011;50131;52.084;5.228;2022-08-21T05:08:13;25.7;;;23.4;;
63955;SDS011;50131;52.084;5.228;2022-08-21T05:09:54;26.4;;;24.2;;
63955;SDS011;50131;52.084;5.228;2022-08-21T05:13:10;24.2;;;22.2;;
63955;SDS011;50131;52.084;5.228;2022-08-21T05:14:48;25.1;;;22.9;;
63955;SDS011;50131;52.084;5.228;2022-08-21T05:16:25;25.9;;;23.7;;
63955;SDS011;50131;52.084;5.228;2022-08-21T05:19:40;24.1;;;22.0;;
63955;SDS011;50131;52.084;5.228;2022-08-21T05:21:16;25.9;;;23.6;;
63955;SDS011;50131;52.084;5.228;2022-08-21T05:22:52;26.3;;;24.1;;
63955;SDS011;50131;52.084;5.228;2022-08-21T05:24:30;27.2;;;24.7;;
63955;SDS011;50131;52.084;5.228;2022-08-21T05:29:20;28.6;;;26.3;;
63955;SDS011;50131;52.084;5.228;2022-08-21T05:30:56;30.5;;;28.1;;
63955;SDS011;50131;52.084;5.228;2022-08-21T05:34:12;18.41;;;13.6;;
63955;SDS011;50131;52.084;5.228;2022-08-21T05:35:49;19.8;;;15.1;;
63955;SDS011;50131;52.084;5.228;2022-08-21T05:37:27;19.11;;;16.11;;
63955;SDS011;50131;52.084;5.228;2022-08-21T05:40:40;18.61;;;15.2;;
63955;SDS011;50131;52.084;5.228;2022-08-21T05:42:16;15.8;;;13.6;;
63955;SDS011;50131;52.084;5.228;2022-08-21T05:45:30;17.0;;;15.3;;
63955;SDS011;50131;52.084;5.228;2022-08-21T05:48:46;16.9;;;13.8;;
63955;SDS011;50131;52.084;5.228;2022-08-21T05:50:22;20.11;;;16.2;;
63955;SDS011;50131;52.084;5.228;2022-08-21T05:52:00;19.0;;;14.9;;
63955;SDS011;50131;52.084;5.228;2022-08-21T05:55:15;18.2;;;14.7;;
63955;SDS011;50131;52.084;5.228;2022-08-21T05:56:51;19.61;;;18.0;;
63955;SDS011;50131;52.084;5.228;2022-08-21T05:58:27;20.5;;;18.41;;
63955;SDS011;50131;52.084;5.228;2022-08-21T06:00:04;18.3;;;16.3;;
63955;SDS011;50131;52.084;5.228;2022-08-21T06:03:18;19.61;;;17.61;;
63955;SDS011;50131;52.084;5.228;2022-08-21T06:05:00;17.2;;;15.6;;
63955;SDS011;50131;52.084;5.228;2022-08-21T06:06:37;19.2;;;17.3;;
63955;SDS011;50131;52.084;5.228;2022-08-21T06:09:50;19.61;;;17.8;;
63955;SDS011;50131;52.084;5.228;2022-08-21T06:11:26;18.91;;;17.0;;
63955;SDS011;50131;52.084;5.228;2022-08-21T06:13:04;18.0;;;14.4;;
63955;SDS011;50131;52.084;5.228;2022-08-21T06:14:41;24.3;;;19.11;;
63955;SDS011;50131;52.084;5.228;2022-08-21T06:17:54;23.2;;;20.9;;
63955;SDS011;50131;52.084;5.228;2022-08-21T06:19:32;20.8;;;18.8;;
63955;SDS011;50131;52.084;5.228;2022-08-21T06:21:09;21.8;;;19.7;;
63955;SDS011;50131;52.084;5.228;2022-08-21T06:24:22;18.7;;;16.9;;
63955;SDS011;50131;52.084;5.228;2022-08-21T06:25:59;21.4;;;19.2;;
63955;SDS011;50131;52.084;5.228;2022-08-21T06:27:36;23.2;;;20.7;;
63955;SDS011;50131;52.084;5.228;2022-08-21T06:30:53;21.3;;;19.11;;
63955;SDS011;50131;52.084;5.228;2022-08-21T06:32:30;21.6;;;19.41;;
63955;SDS011;50131;52.084;5.228;2022-08-21T06:34:07;21.9;;;18.3;;
63955;SDS011;50131;52.084;5.228;2022-08-21T06:35:44;21.2;;;19.0;;
63955;SDS011;50131;52.084;5.228;2022-08-21T06:38:58;22.3;;;20.3;;
63955;SDS011;50131;52.084;5.228;2022-08-21T06:40:34;21.5;;;19.5;;
63955;SDS011;50131;52.084;5.228;2022-08-21T06:42:13;51.7;;;48.6;;
63955;SDS011;50131;52.084;5.228;2022-08-21T06:45:27;48.1;;;44.9;;
63955;SDS011;50131;52.084;5.228;2022-08-21T06:47:04;51.2;;;47.7;;
63955;SDS011;50131;52.084;5.228;2022-08-21T06:48:41;53.9;;;50.3;;
63955;SDS011;50131;52.084;5.228;2022-08-21T06:50:17;53.9;;;50.0;;
63955;SDS011;50131;52.084;5.228;2022-08-21T06:53:31;50.6;;;47.1;;
63955;SDS011;50131;52.084;5.228;2022-08-21T06:55:12;52.5;;;49.0;;
63955;SDS011;50131;52.084;5.228;2022-08-21T06:56:48;54.0;;;49.5;;
63955;SDS011;50131;52.084;5.228;2022-08-21T07:00:04;51.3;;;47.5;;
63955;SDS011;50131;52.084;5.228;2022-08-21T07:01:43;49.3;;;45.2;;
63955;SDS011;50131;52.084;5.228;2022-08-21T07:03:21;48.7;;;45.4;;
63955;SDS011;50131;52.084;5.228;2022-08-21T07:05:00;48.2;;;44.8;;
63955;SDS011;50131;52.084;5.228;2022-08-21T07:08:15;48.0;;;44.7;;
63955;SDS011;50131;52.084;5.228;2022-08-21T07:09:52;46.6;;;43.3;;
63955;SDS011;50131;52.084;5.228;2022-08-21T07:11:28;44.3;;;41.5;;
63955;SDS011;50131;52.084;5.228;2022-08-21T07:14:42;44.8;;;41.5;;
63955;SDS011;50131;52.084;5.228;2022-08-21T07:16:19;37.1;;;34.5;;
63955;SDS011;50131;52.084;5.228;2022-08-21T07:17:57;33.4;;;30.7;;
63955;SDS011;50131;52.084;5.228;2022-08-21T07:19:34;31.3;;;28.4;;
63955;SDS011;50131;52.084;5.228;2022-08-21T07:22:47;54.7;;;49.9;;
63955;SDS011;50131;52.084;5.228;2022-08-21T07:24:23;49.3;;;45.3;;
63955;SDS011;50131;52.084;5.228;2022-08-21T07:26:00;48.7;;;45.6;;
63955;SDS011;50131;52.084;5.228;2022-08-21T07:29:13;48.4;;;44.7;;
63955;SDS011;50131;52.084;5.228;2022-08-21T07:30:50;48.5;;;45.5;;
63955;SDS011;50131;52.084;5.228;2022-08-21T07:32:29;50.9;;;47.6;;
63955;SDS011;50131;52.084;5.228;2022-08-21T07:35:44;51.0;;;47.7;;
63955;SDS011;50131;52.084;5.228;2022-08-21T07:37:20;50.0;;;46.6;;
63955;SDS011;50131;52.084;5.228;2022-08-21T07:38:57;53.8;;;49.1;;
63955;SDS011;50131;52.084;5.228;2022-08-21T07:40:35;48.5;;;45.0;;
63955;SDS011;50131;52.084;5.228;2022-08-21T07:43:47;50.7;;;47.1;;
63955;SDS011;50131;52.084;5.228;2022-08-21T07:45:24;34.31;;;27.6;;
63955;SDS011;50131;52.084;5.228;2022-08-21T07:47:02;27.1;;;25.2;;
63955;SDS011;50131;52.084;5.228;2022-08-21T07:50:17;28.0;;;25.0;;
63955;SDS011;50131;52.084;5.228;2022-08-21T07:51:54;27.6;;;25.1;;
63955;SDS011;50131;52.084;5.228;2022-08-21T07:53:30;29.2;;;26.6;;
63955;SDS011;50131;52.084;5.228;2022-08-21T07:55:08;29.2;;;26.6;;
63955;SDS011;50131;52.084;5.228;2022-08-21T07:58:23;46.4;;;42.9;;
63955;SDS011;50131;52.084;5.228;2022-08-21T08:00:00;40.81;;;38.0;;
63955;SDS011;50131;52.084;5.228;2022-08-21T08:01:36;49.3;;;45.9;;
63955;SDS011;50131;52.084;5.228;2022-08-21T08:04:50;41.5;;;38.4;;
63955;SDS011;50131;52.084;5.228;2022-08-21T08:06:26;42.4;;;39.4;;
63955;SDS011;50131;52.084;5.228;2022-08-21T08:08:04;43.0;;;39.6;;
63955;SDS011;50131;52.084;5.228;2022-08-21T08:11:17;43.4;;;40.6;;
63955;SDS011;50131;52.084;5.228;2022-08-21T08:12:54;41.4;;;37.81;;
63955;SDS011;50131;52.084;5.228;2022-08-21T08:14:32;39.81;;;37.0;;
63955;SDS011;50131;52.084;5.228;2022-08-21T08:16:08;36.9;;;28.0;;
63955;SDS011;50131;52.084;5.228;2022-08-21T08:19:24;26.8;;;24.4;;
63955;SDS011;50131;52.084;5.228;2022-08-21T08:21:01;33.21;;;30.0;;
63955;SDS011;50131;52.084;5.228;2022-08-21T08:22:39;72.61;;;34.9;;
63955;SDS011;50131;52.084;5.228;2022-08-21T08:25:52;33.0;;;30.1;;
63955;SDS011;50131;52.084;5.228;2022-08-21T08:27:30;31.1;;;27.7;;
63955;SDS011;50131;52.084;5.228;2022-08-21T08:29:07;35.0;;;31.9;;
63955;SDS011;50131;52.084;5.228;2022-08-21T08:30:44;35.6;;;32.71;;
63955;SDS011;50131;52.084;5.228;2022-08-21T08:33:59;36.31;;;33.4;;
63955;SDS011;50131;52.084;5.228;2022-08-21T08:35:36;29.8;;;27.6;;
63955;SDS011;50131;52.084;5.228;2022-08-21T08:37:12;30.5;;;28.0;;
63955;SDS011;50131;52.084;5.228;2022-08-21T08:40:27;31.5;;;29.0;;
63955;SDS011;50131;52.084;5.228;2022-08-21T08:42:20;32.6;;;29.5;;
63955;SDS011;50131;52.084;5.228;2022-08-21T08:44:05;36.6;;;30.8;;
63955;SDS011;50131;52.084;5.228;2022-08-21T08:45:46;36.4;;;33.6;;
63955;SDS011;50131;52.084;5.228;2022-08-21T08:47:26;36.71;;;33.8;;
63955;SDS011;50131;52.084;5.228;2022-08-21T08:50:49;56.8;;;41.7;;
63955;SDS011;50131;52.084;5.228;2022-08-21T08:52:33;35.5;;;32.5;;
63955;SDS011;50131;52.084;5.228;2022-08-21T08:54:14;33.1;;;30.2;;
63955;SDS011;50131;52.084;5.228;2022-08-21T08:55:57;34.81;;;31.7;;
63955;SDS011;50131;52.084;5.228;2022-08-21T08:59:20;27.7;;;25.2;;
63955;SDS011;50131;52.084;5.228;2022-08-21T09:01:05;22.6;;;20.5;;
63955;SDS011;50131;52.084;5.228;2022-08-21T09:02:51;33.21;;;29.6;;
63955;SDS011;50131;52.084;5.228;2022-08-21T09:04:31;57.3;;;35.1;;
63955;SDS011;50131;52.084;5.228;2022-08-21T09:08:13;55.6;;;31.0;;
63955;SDS011;50131;52.084;5.228;2022-08-21T09:10:10;44.5;;;32.71;;
63955;SDS011;50131;52.084;5.228;2022-08-21T09:11:56;38.31;;;34.21;;
63955;SDS011;50131;52.084;5.228;2022-08-21T09:13:43;26.2;;;24.0;;
63955;SDS011;50131;52.084;5.228;2022-08-21T09:15:29;27.6;;;25.3;;
63955;SDS011;50131;52.084;5.228;2022-08-21T09:17:13;25.7;;;23.9;;
63955;SDS011;50131;52.084;5.228;2022-08-21T09:19:18;25.4;;;23.5;;
63955;SDS011;50131;52.084;5.228;2022-08-21T09:21:16;29.6;;;26.9;;
63955;SDS011;50131;52.084;5.228;2022-08-21T09:23:04;22.7;;;20.41;;
63955;SDS011;50131;52.084;5.228;2022-08-21T09:26:44;51.4;;;35.0;;
63955;SDS011;50131;52.084;5.228;2022-08-21T09:28:33;22.6;;;20.7;;
63955;SDS011;50131;52.084;5.228;2022-08-21T09:30:12;24.5;;;21.8;;
63955;SDS011;50131;52.084;5.228;2022-08-21T09:31:49;21.7;;;19.8;;
63955;SDS011;50131;52.084;5.228;2022-08-21T09:33:26;23.0;;;20.9;;
63955;SDS011;50131;52.084;5.228;2022-08-21T09:38:28;20.8;;;18.91;;
63955;SDS011;50131;52.084;5.228;2022-08-21T09:40:15;22.8;;;20.8;;
63955;SDS011;50131;52.084;5.228;2022-08-21T09:42:06;18.2;;;16.4;;
63955;SDS011;50131;52.084;5.228;2022-08-21T09:45:29;15.0;;;13.4;;
63955;SDS011;50131;52.084;5.228;2022-08-21T09:47:07;30.3;;;22.5;;
63955;SDS011;50131;52.084;5.228;2022-08-21T09:48:46;18.11;;;14.2;;
63955;SDS011;50131;52.084;5.228;2022-08-21T09:50:26;19.11;;;16.4;;
63955;SDS011;50131;52.084;5.228;2022-08-21T09:53:55;14.0;;;12.7;;
63955;SDS011;50131;52.084;5.228;2022-08-21T09:58:45;17.11;;;11.5;;
63955;SDS011;50131;52.084;5.228;2022-08-21T10:02:18;38.5;;;26.0;;
63955;SDS011;50131;52.084;5.228;2022-08-21T10:04:03;16.0;;;11.7;;
63955;SDS011;50131;52.084;5.228;2022-08-21T10:05:51;14.0;;;12.6;;
63955;SDS011;50131;52.084;5.228;2022-08-21T10:07:31;12.1;;;10.21;;
63955;SDS011;50131;52.084;5.228;2022-08-21T10:09:13;10.6;;;9.1;;
63955;SDS011;50131;52.084;5.228;2022-08-21T10:12:42;13.5;;;10.8;;
63955;SDS011;50131;52.084;5.228;2022-08-21T10:14:34;30.0;;;17.7;;
63955;SDS011;50131;52.084;5.228;2022-08-21T10:16:39;12.7;;;10.0;;
63955;SDS011;50131;52.084;5.228;2022-08-21T10:18:29;13.2;;;9.0;;
63955;SDS011;50131;52.084;5.228;2022-08-21T10:20:17;13.8;;;9.5;;
63955;SDS011;50131;52.084;5.228;2022-08-21T10:22:00;24.9;;;12.5;;
63955;SDS011;50131;52.084;5.228;2022-08-21T10:23:52;10.3;;;8.31;;
63955;SDS011;50131;52.084;5.228;2022-08-21T10:27:27;45.3;;;19.5;;
63955;SDS011;50131;52.084;5.228;2022-08-21T10:29:16;25.5;;;17.5;;
63955;SDS011;50131;52.084;5.228;2022-08-21T10:31:18;18.3;;;15.5;;
63955;SDS011;50131;52.084;5.228;2022-08-21T10:33:11;10.0;;;6.4;;
63955;SDS011;50131;52.084;5.228;2022-08-21T10:35:00;10.4;;;8.71;;
63955;SDS011;50131;52.084;5.228;2022-08-21T10:36:46;22.0;;;16.5;;
63955;SDS011;50131;52.084;5.228;2022-08-21T10:38:52;78.0;;;29.5;;
63955;SDS011;50131;52.084;5.228;2022-08-21T10:40:34;17.5;;;13.0;;
63955;SDS011;50131;52.084;5.228;2022-08-21T10:44:13;12.4;;;8.9;;
63955;SDS011;50131;52.084;5.228;2022-08-21T10:46:00;14.3;;;11.5;;
63955;SDS011;50131;52.084;5.228;2022-08-21T10:47:54;12.4;;;7.9;;
63955;SDS011;50131;52.084;5.228;2022-08-21T10:49:38;17.5;;;14.7;;
63955;SDS011;50131;52.084;5.228;2022-08-21T10:51:23;15.8;;;11.9;;
63955;SDS011;50131;52.084;5.228;2022-08-21T10:53:15;30.9;;;16.0;;
63955;SDS011;50131;52.084;5.228;2022-08-21T10:55:06;56.7;;;19.7;;
63955;SDS011;50131;52.084;5.228;2022-08-21T10:58:33;12.1;;;8.6;;
63955;SDS011;50131;52.084;5.228;2022-08-21T11:00:17;10.3;;;8.2;;
63955;SDS011;50131;52.084;5.228;2022-08-21T11:01:59;39.6;;;20.3;;
63955;SDS011;50131;52.084;5.228;2022-08-21T11:03:44;9.5;;;7.5;;
63955;SDS011;50131;52.084;5.228;2022-08-21T11:07:10;26.9;;;18.41;;
63955;SDS011;50131;52.084;5.228;2022-08-21T11:08:57;92.8;;;40.71;;
63955;SDS011;50131;52.084;5.228;2022-08-21T11:10:47;25.1;;;18.2;;
63955;SDS011;50131;52.084;5.228;2022-08-21T11:12:30;8.0;;;6.9;;
63955;SDS011;50131;52.084;5.228;2022-08-21T11:14:19;60.7;;;31.2;;
63955;SDS011;50131;52.084;5.228;2022-08-21T11:16:07;8.5;;;7.4;;
63955;SDS011;50131;52.084;5.228;2022-08-21T11:19:56;7.1;;;5.8;;
63955;SDS011;50131;52.084;5.228;2022-08-21T11:21:47;14.2;;;10.9;;
63955;SDS011;50131;52.084;5.228;2022-08-21T11:23:31;37.0;;;17.11;;
63955;SDS011;50131;52.084;5.228;2022-08-21T11:25:19;60.1;;;28.6;;
63955;SDS011;50131;52.084;5.228;2022-08-21T11:27:03;10.4;;;8.71;;
63955;SDS011;50131;52.084;5.228;2022-08-21T11:28:55;10.4;;;8.5;;
63955;SDS011;50131;52.084;5.228;2022-08-21T11:30:43;10.3;;;7.8;;
63955;SDS011;50131;52.084;5.228;2022-08-21T11:34:44;37.9;;;20.3;;
63955;SDS011;50131;52.084;5.228;2022-08-21T11:36:31;75.5;;;36.21;;
63955;SDS011;50131;52.084;5.228;2022-08-21T11:38:20;68.0;;;37.21;;
63955;SDS011;50131;52.084;5.228;2022-08-21T11:40:11;30.0;;;19.7;;
63955;SDS011;50131;52.084;5.228;2022-08-21T11:42:01;134.2;;;59.9;;
63955;SDS011;50131;52.084;5.228;2022-08-21T11:43:49;39.21;;;22.4;;
63955;SDS011;50131;52.084;5.228;2022-08-21T11:45:37;68.1;;;41.2;;
63955;SDS011;50131;52.084;5.228;2022-08-21T11:47:29;15.7;;;10.21;;
63955;SDS011;50131;52.084;5.228;2022-08-21T11:49:29;11.1;;;8.2;;
63955;SDS011;50131;52.084;5.228;2022-08-21T11:53:17;11.2;;;10.0;;
63955;SDS011;50131;52.084;5.228;2022-08-21T11:55:07;11.2;;;10.0;;
63955;SDS011;50131;52.084;5.228;2022-08-21T11:56:51;11.9;;;10.7;;
63955;SDS011;50131;52.084;5.228;2022-08-21T11:58:35;17.11;;;12.1;;
63955;SDS011;50131;52.084;5.228;2022-08-21T12:00:16;39.71;;;20.41;;
63955;SDS011;50131;52.084;5.228;2022-08-21T12:01:58;10.4;;;9.31;;
63955;SDS011;50131;52.084;5.228;2022-08-21T12:05:22;29.8;;;18.61;;
63955;SDS011;50131;52.084;5.228;2022-08-21T12:07:09;12.2;;;8.9;;
63955;SDS011;50131;52.084;5.228;2022-08-21T12:08:56;105.8;;;39.81;;
63955;SDS011;50131;52.084;5.228;2022-08-21T12:10:36;20.8;;;16.61;;
63955;SDS011;50131;52.084;5.228;2022-08-21T12:14:12;52.8;;;32.5;;
63955;SDS011;50131;52.084;5.228;2022-08-21T12:15:51;119.8;;;53.1;;
63955;SDS011;50131;52.084;5.228;2022-08-21T12:17:34;47.3;;;25.0;;
63955;SDS011;50131;52.084;5.228;2022-08-21T12:19:27;45.0;;;31.0;;
63955;SDS011;50131;52.084;5.228;2022-08-21T12:21:23;45.2;;;32.71;;
63955;SDS011;50131;52.084;5.228;2022-08-21T12:23:04;45.5;;;33.0;;
63955;SDS011;50131;52.084;5.228;2022-08-21T12:25:05;60.8;;;36.81;;
63955;SDS011;50131;52.084;5.228;2022-08-21T12:28:27;40.71;;;25.4;;
63955;SDS011;50131;52.084;5.228;2022-08-21T12:30:20;32.0;;;21.5;;
63955;SDS011;50131;52.084;5.228;2022-08-21T12:32:19;11.0;;;9.9;;
63955;SDS011;50131;52.084;5.228;2022-08-21T12:34:01;25.9;;;15.7;;
63955;SDS011;50131;52.084;5.228;2022-08-21T12:35:46;14.7;;;11.9;;
63955;SDS011;50131;52.084;5.228;2022-08-21T12:39:21;9.1;;;7.3;;
63955;SDS011;50131;52.084;5.228;2022-08-21T12:41:05;9.71;;;6.4;;
63955;SDS011;50131;52.084;5.228;2022-08-21T12:42:50;17.0;;;13.8;;
63955;SDS011;50131;52.084;5.228;2022-08-21T12:44:33;36.6;;;20.6;;
63955;SDS011;50131;52.084;5.228;2022-08-21T12:46:15;13.5;;;10.7;;
63955;SDS011;50131;52.084;5.228;2022-08-21T12:49:37;9.4;;;8.1;;
63955;SDS011;50131;52.084;5.228;2022-08-21T12:51:28;10.4;;;9.5;;
63955;SDS011;50131;52.084;5.228;2022-08-21T12:53:11;21.8;;;15.1;;
63955;SDS011;50131;52.084;5.228;2022-08-21T12:54:59;86.5;;;52.8;;
63955;SDS011;50131;52.084;5.228;2022-08-21T12:56:39;22.9;;;18.5;;
63955;SDS011;50131;52.084;5.228;2022-08-21T12:59:55;26.4;;;20.11;;
63955;SDS011;50131;52.084;5.228;2022-08-21T13:01:36;25.1;;;22.5;;
63955;SDS011;50131;52.084;5.228;2022-08-21T13:03:21;13.4;;;12.2;;
63955;SDS011;50131;52.084;5.228;2022-08-21T13:05:02;6.8;;;5.8;;
63955;SDS011;50131;52.084;5.228;2022-08-21T13:08:24;17.11;;;13.9;;
63955;SDS011;50131;52.084;5.228;2022-08-21T13:10:05;12.3;;;8.31;;
63955;SDS011;50131;52.084;5.228;2022-08-21T13:11:50;17.61;;;10.1;;
63955;SDS011;50131;52.084;5.228;2022-08-21T13:13:28;9.4;;;8.0;;
63955;SDS011;50131;52.084;5.228;2022-08-21T13:16:44;9.6;;;8.31;;
63955;SDS011;50131;52.084;5.228;2022-08-21T13:18:23;8.4;;;5.3;;
63955;SDS011;50131;52.084;5.228;2022-08-21T13:20:10;17.61;;;15.9;;
63955;SDS011;50131;52.084;5.228;2022-08-21T13:21:58;25.6;;;17.0;;
63955;SDS011;50131;52.084;5.228;2022-08-21T13:23:37;21.7;;;15.5;;